Time;durP1;ratioP1;P1;durP2;ratioP2;P2;SDS_P1;SDS_P2;PMS_P1;PMS_P2;Temp;Humidity;BMP_temperature;BMP_pressure;BME280_temperature;BME280_humidity;BME280_pressure;Samples;Min_cycle;Max_cycle;Signal;HPM_P1;HPM_P2
2023/08/22 00:00:53;;;;;;;42.20;37.80;;;;;;;26.83;54.51;98918.38;5091226;28;20415;-45
2023/08/22 00:03:19;;;;;;;386.13;347.88;;;;;;;26.70;55.18;98924.56;5091427;28;20088;-45
2023/08/22 00:05:44;;;;;;;190.05;168.90;;;;;;;26.58;55.37;98917.03;5092707;28;20114;-44
2023/08/22 00:08:10;;;;;;;58.60;52.45;;;;;;;26.51;55.70;98912.00;5091299;28;20025;-45
2023/08/22 00:10:36;;;;;;;18.42;16.52;;;;;;;26.48;55.66;98915.31;5092613;28;20611;-45
2023/08/22 00:13:03;;;;;;;20.38;13.70;;;;;;;26.42;55.64;98916.50;5092608;28;20374;-45
2023/08/22 00:15:29;;;;;;;13.05;7.90;;;;;;;26.39;56.11;98922.47;5092773;28;20096;-45
2023/08/22 00:17:54;;;;;;;25.60;13.25;;;;;;;26.45;56.39;98915.91;5092551;28;20485;-45
2023/08/22 00:20:22;;;;;;;17.55;15.88;;;;;;;26.80;55.47;98921.69;5092422;28;20032;-45
2023/08/22 00:22:48;;;;;;;19.75;8.98;;;;;;;27.03;54.70;98908.28;5092661;28;20095;-45
2023/08/22 00:25:13;;;;;;;8.48;5.70;;;;;;;27.06;54.60;98903.09;5092410;28;20481;-45
2023/08/22 00:27:39;;;;;;;9.00;5.68;;;;;;;26.92;54.59;98909.59;5092426;28;20024;-45
2023/08/22 00:30:06;;;;;;;10.23;6.22;;;;;;;26.65;55.37;98906.63;5092314;28;20028;-45
2023/08/22 00:32:32;;;;;;;10.10;8.00;;;;;;;26.43;56.04;98907.31;5092296;28;20093;-45
2023/08/22 00:34:58;;;;;;;12.50;6.03;;;;;;;26.29;56.40;98911.91;5091034;28;20079;-45
2023/08/22 00:37:23;;;;;;;10.77;6.28;;;;;;;26.24;56.85;98909.31;5092458;28;20016;-44
2023/08/22 00:39:49;;;;;;;11.38;5.30;;;;;;;26.13;57.23;98910.59;5090803;28;20497;-45
2023/08/22 00:42:15;;;;;;;17.67;10.25;;;;;;;26.10;57.46;98909.31;5092100;28;20401;-45
2023/08/22 00:44:41;;;;;;;32.05;11.80;;;;;;;26.17;57.75;98903.53;5074003;28;20139;-45
2023/08/22 00:47:07;;;;;;;8.25;4.50;;;;;;;26.24;57.06;98904.75;5092069;28;20124;-46
2023/08/22 00:49:34;;;;;;;18.88;7.60;;;;;;;26.11;57.49;98909.00;5092096;28;20032;-44
2023/08/22 00:52:02;;;;;;;15.38;8.13;;;;;;;26.03;57.91;98912.38;5091072;28;20099;-44
2023/08/22 00:54:30;;;;;;;14.63;7.15;;;;;;;25.99;57.96;98914.06;5091901;28;20042;-47
2023/08/22 00:56:57;;;;;;;8.63;5.80;;;;;;;26.03;57.50;98912.38;5091785;28;20016;-45
2023/08/22 00:59:26;;;;;;;10.50;6.38;;;;;;;26.13;57.29;98914.09;5091425;28;20048;-45
2023/08/22 01:01:52;;;;;;;13.02;5.88;;;;;;;26.24;57.29;98912.81;5091913;28;20028;-45
2023/08/22 01:04:19;;;;;;;11.27;5.30;;;;;;;26.32;56.72;98911.31;5090680;28;20020;-45
2023/08/22 01:07:08;;;;;;;10.18;5.30;;;;;;;26.37;57.13;98911.22;5090494;28;20582;-45
2023/08/22 01:09:40;;;;;;;8.35;5.10;;;;;;;26.46;56.24;98906.75;5091865;28;20035;-45
2023/08/22 01:12:29;;;;;;;9.10;6.93;;;;;;;26.33;56.71;98914.81;5091829;28;20081;-45
2023/08/22 01:15:08;;;;;;;9.27;5.38;;;;;;;26.29;56.65;98918.09;5090656;28;20047;-46
2023/08/22 01:17:35;;;;;;;12.93;6.20;;;;;;;26.33;56.58;98914.81;5090460;28;20032;-46
2023/08/22 01:20:02;;;;;;;13.80;5.22;;;;;;;26.37;56.72;98915.81;5091602;28;20053;-46
2023/08/22 01:22:28;;;;;;;10.18;5.57;;;;;;;26.40;56.51;98912.50;5091713;28;20028;-46
2023/08/22 01:24:54;;;;;;;14.50;8.90;;;;;;;26.35;56.30;98912.63;5091675;28;20035;-45
2023/08/22 01:27:25;;;;;;;14.48;6.00;;;;;;;26.16;57.14;98910.00;5091558;28;20069;-46
2023/08/22 01:29:59;;;;;;;15.27;9.43;;;;;;;26.00;57.50;98915.69;5091730;28;20020;-46
2023/08/22 01:32:30;;;;;;;17.30;6.40;;;;;;;25.83;58.12;98912.72;5090321;28;20039;-46
2023/08/22 01:35:02;;;;;;;12.95;5.47;;;;;;;25.77;58.45;98917.38;5091523;28;20040;-46
2023/08/22 01:37:30;;;;;;;13.35;7.93;;;;;;;25.90;58.52;98915.88;5091562;28;20032;-46
2023/08/22 01:39:58;;;;;;;14.10;6.88;;;;;;;25.97;58.05;98910.09;5091393;28;20035;-45
2023/08/22 01:42:24;;;;;;;14.82;13.43;;;;;;;25.99;57.89;98911.38;5091478;28;20540;-46
2023/08/22 01:44:50;;;;;;;15.13;6.55;;;;;;;26.01;57.81;98919.94;5090213;28;20516;-45
2023/08/22 01:47:16;;;;;;;11.30;7.72;;;;;;;25.93;58.23;98917.16;5091451;28;20031;-46
2023/08/22 01:49:41;;;;;;;16.65;5.75;;;;;;;25.76;58.36;98918.47;5091372;28;20017;-46
2023/08/22 01:52:07;;;;;;;12.68;5.03;;;;;;;25.74;58.82;98920.66;5091402;28;20103;-45
2023/08/22 01:54:38;;;;;;;11.60;5.60;;;;;;;25.74;58.87;98919.88;5090163;28;20020;-45
2023/08/22 01:57:04;;;;;;;10.07;5.25;;;;;;;25.75;58.64;98921.47;5090138;28;20035;-45
2023/08/22 01:59:30;;;;;;;14.93;6.53;;;;;;;25.75;59.04;98926.84;5089801;28;20386;-45
2023/08/22 02:01:55;;;;;;;11.25;5.00;;;;;;;25.65;59.13;98917.84;5091309;28;20017;-45
2023/08/22 02:04:21;;;;;;;10.85;5.30;;;;;;;25.50;59.48;98921.59;5090080;28;20406;-45
2023/08/22 02:06:47;;;;;;;8.43;5.07;;;;;;;25.33;59.90;98923.19;5091473;28;20073;-46
2023/08/22 02:09:13;;;;;;;14.52;5.93;;;;;;;25.23;60.40;98916.91;5094967;28;20024;-46
2023/08/22 02:11:39;;;;;;;17.85;8.88;;;;;;;25.25;60.53;98914.72;5094963;28;20594;-46
2023/08/22 02:14:05;;;;;;;9.90;5.57;;;;;;;25.26;60.48;98913.63;5093532;28;20081;-45
2023/08/22 02:16:31;;;;;;;11.30;7.70;;;;;;;25.26;60.58;98913.63;5095374;28;20032;-46
2023/08/22 02:18:56;;;;;;;13.55;6.78;;;;;;;25.36;60.20;98904.59;5094793;28;20393;-46
2023/08/22 02:21:22;;;;;;;10.15;8.75;;;;;;;25.51;60.01;98906.25;5093400;28;20115;-45
2023/08/22 02:23:48;;;;;;;19.00;11.98;;;;;;;25.57;59.59;98901.59;5093426;28;20032;-45
2023/08/22 02:26:14;;;;;;;13.45;8.02;;;;;;;25.65;59.55;98898.22;5093341;28;20054;-45
2023/08/22 02:28:39;;;;;;;10.50;7.10;;;;;;;25.68;59.17;98903.81;5093295;28;20462;-45
2023/08/22 02:31:05;;;;;;;13.32;8.15;;;;;;;25.66;59.34;98902.53;5094465;28;20115;-45
2023/08/22 02:33:31;;;;;;;7.57;5.78;;;;;;;25.60;59.42;98899.13;5094542;28;20020;-45
2023/08/22 02:35:56;;;;;;;15.13;6.95;;;;;;;25.58;59.49;98898.63;5094443;28;20076;-46
2023/08/22 02:38:22;;;;;;;9.77;6.13;;;;;;;25.54;59.81;98902.97;5093125;28;20035;-46
2023/08/22 02:40:48;;;;;;;15.13;6.20;;;;;;;25.57;59.67;98904.28;5094380;28;20028;-45
2023/08/22 02:43:13;;;;;;;15.00;5.53;;;;;;;25.57;59.65;98902.38;5092986;28;20036;-46
2023/08/22 02:45:39;;;;;;;13.93;4.93;;;;;;;25.52;59.80;98903.28;5094296;28;20016;-46
2023/08/22 02:48:05;;;;;;;14.38;5.50;;;;;;;25.51;59.71;98908.94;5094257;28;20481;-45
2023/08/22 02:50:31;;;;;;;16.25;5.70;;;;;;;25.55;59.66;98909.94;5092739;28;20023;-46
2023/08/22 02:52:57;;;;;;;17.30;8.45;;;;;;;25.66;60.06;98910.59;5092815;28;20028;-45
2023/08/22 02:55:22;;;;;;;10.40;6.60;;;;;;;25.72;59.33;98898.66;5094082;28;20020;-46
2023/08/22 02:57:48;;;;;;;16.05;6.07;;;;;;;25.72;59.37;98898.66;5094063;28;20046;-45
2023/08/22 03:00:14;;;;;;;15.25;8.02;;;;;;;25.80;59.16;98899.88;5093723;28;20048;-45
2023/08/22 03:02:40;;;;;;;14.48;10.63;;;;;;;25.83;59.26;98907.34;5093964;28;20024;-46
2023/08/22 03:05:11;;;;;;;15.98;9.25;;;;;;;25.86;59.17;98898.69;5093865;28;20020;-46
2023/08/22 03:07:37;;;;;;;9.82;5.43;;;;;;;25.86;59.04;98902.19;5093849;28;20028;-46
2023/08/22 03:10:03;;;;;;;14.13;5.40;;;;;;;25.86;58.81;98904.06;5093677;28;20035;-46
2023/08/22 03:12:28;;;;;;;12.35;5.32;;;;;;;25.77;59.25;98905.84;5093775;28;20024;-46
2023/08/22 03:14:54;;;;;;;14.52;6.43;;;;;;;25.65;59.31;98899.03;5093893;28;20039;-46
2023/08/22 03:17:20;;;;;;;8.27;5.82;;;;;;;25.41;59.70;98901.03;5093617;28;20056;-45
2023/08/22 03:19:45;;;;;;;13.15;6.65;;;;;;;25.22;60.61;98904.53;5093660;28;20554;-46
2023/08/22 03:22:11;;;;;;;11.98;5.95;;;;;;;25.11;60.92;98895.00;5092186;28;20034;-45
2023/08/22 03:24:37;;;;;;;16.85;7.95;;;;;;;25.05;61.16;98901.53;5075376;28;20028;-45
2023/08/22 03:27:03;;;;;;;14.20;8.63;;;;;;;25.08;61.43;98900.97;5093433;28;20069;-45
2023/08/22 03:29:29;;;;;;;11.10;7.35;;;;;;;25.19;61.15;98902.41;5093368;28;20028;-45
2023/08/22 03:31:58;;;;;;;8.52;5.80;;;;;;;25.29;60.70;98896.94;5092025;28;20030;-45
2023/08/22 03:34:24;;;;;;;17.13;6.38;;;;;;;25.38;60.53;98896.25;5093349;28;20109;-45
2023/08/22 03:36:49;;;;;;;15.70;11.10;;;;;;;25.40;60.50;98899.47;5091911;28;20515;-45
2023/08/22 03:39:15;;;;;;;12.25;6.00;;;;;;;25.28;60.43;98900.69;5091894;28;20028;-45
2023/08/22 03:41:41;;;;;;;12.48;9.20;;;;;;;25.25;60.90;98905.84;5093176;28;20099;-46
2023/08/22 03:44:06;;;;;;;18.52;7.95;;;;;;;25.29;60.80;98906.84;5093398;28;20382;-45
2023/08/22 03:46:32;;;;;;;15.65;8.43;;;;;;;25.39;61.02;98905.91;5093101;28;20490;-45
2023/08/22 03:48:57;;;;;;;15.50;5.88;;;;;;;25.67;60.76;98909.47;5091723;28;20028;-45
2023/08/22 03:51:23;;;;;;;16.38;6.32;;;;;;;25.94;60.08;98903.41;5091600;28;20397;-46
2023/08/22 03:53:49;;;;;;;17.02;7.82;;;;;;;26.10;58.99;98906.63;5091631;28;20035;-46
2023/08/22 03:56:15;;;;;;;17.40;5.88;;;;;;;26.13;58.67;98899.84;5092975;28;20057;-46
2023/08/22 03:58:41;;;;;;;17.55;6.20;;;;;;;26.25;58.52;98902.84;5092848;28;20024;-45
2023/08/22 04:01:07;;;;;;;14.80;9.45;;;;;;;26.33;58.25;98904.84;5091305;28;20089;-45
2023/08/22 04:03:33;;;;;;;19.92;9.90;;;;;;;26.26;57.88;98913.31;5093117;28;20016;-46
2023/08/22 04:05:59;;;;;;;17.33;9.80;;;;;;;26.02;58.11;98913.50;5092674;28;20606;-46
2023/08/22 04:08:25;;;;;;;10.82;9.13;;;;;;;25.76;58.70;98913.09;5092771;28;20028;-46
2023/08/22 04:10:54;;;;;;;9.15;6.60;;;;;;;25.46;59.93;98912.50;5092562;28;20102;-46
2023/08/22 04:13:20;;;;;;;46.95;13.52;;;;;;;25.29;60.70;98914.91;5092692;28;20149;-46
2023/08/22 04:15:46;;;;;;;16.65;10.05;;;;;;;25.41;61.29;98914.47;5092512;28;20070;-45
2023/08/22 04:18:11;;;;;;;39.65;17.98;;;;;;;25.50;60.76;98904.66;5092588;28;20024;-46
2023/08/22 04:20:37;;;;;;;13.43;11.32;;;;;;;25.37;61.06;98906.19;5092438;28;20020;-45
2023/08/22 04:23:03;;;;;;;31.98;15.75;;;;;;;25.15;61.46;98900.59;5092372;28;20012;-46
2023/08/22 04:25:28;;;;;;;33.75;15.65;;;;;;;25.03;61.90;98909.09;5091037;28;20497;-45
2023/08/22 04:27:54;;;;;;;13.63;10.85;;;;;;;25.00;61.92;98913.16;5090982;28;20020;-45
2023/08/22 04:30:20;;;;;;;20.70;8.40;;;;;;;24.89;62.39;98919.75;5091827;28;20020;-45
2023/08/22 04:32:45;;;;;;;14.73;6.65;;;;;;;25.00;62.46;98915.06;5090966;28;20035;-45
2023/08/22 04:35:11;;;;;;;31.75;7.38;;;;;;;25.09;62.03;98918.66;5092221;28;20030;-46
2023/08/22 04:37:37;;;;;;;16.73;5.82;;;;;;;25.21;61.81;98928.97;5092223;28;20021;-46
2023/08/22 04:40:05;;;;;;;13.27;5.53;;;;;;;25.30;61.37;98922.69;5090818;28;20032;-45
2023/08/22 04:42:31;;;;;;;22.10;6.35;;;;;;;25.19;61.22;98921.19;5090842;28;20051;-45
2023/08/22 04:44:57;;;;;;;16.50;6.57;;;;;;;24.97;62.13;98927.19;5092027;28;20054;-45
2023/08/22 04:47:22;;;;;;;15.38;5.93;;;;;;;24.88;62.12;98926.22;5090801;28;20078;-45
2023/08/22 04:49:48;;;;;;;13.35;5.55;;;;;;;24.85;62.55;98926.78;5091981;28;20020;-45
2023/08/22 04:52:14;;;;;;;14.20;5.75;;;;;;;24.96;62.35;98930.16;5090720;28;20028;-45
2023/08/22 04:54:39;;;;;;;10.82;5.13;;;;;;;24.88;62.25;98935.06;5091937;28;20550;-45
2023/08/22 04:57:05;;;;;;;7.82;4.78;;;;;;;24.90;62.40;98934.78;5090724;28;20031;-46
2023/08/22 04:59:30;;;;;;;14.07;5.63;;;;;;;24.93;62.35;98934.19;5091692;28;20044;-45
2023/08/22 05:01:56;;;;;;;10.95;5.60;;;;;;;24.97;62.35;98929.88;5091961;28;20027;-46
2023/08/22 05:04:22;;;;;;;15.55;5.90;;;;;;;25.01;62.16;98940.81;5090575;28;20073;-45
2023/08/22 05:06:47;;;;;;;10.95;5.80;;;;;;;25.11;62.17;98944.16;5090479;28;20141;-45
2023/08/22 05:09:14;;;;;;;10.30;5.40;;;;;;;25.21;61.90;98931.66;5091869;28;20389;-45
2023/08/22 05:11:40;;;;;;;13.27;6.10;;;;;;;25.50;61.54;98940.41;5091671;28;20032;-45
2023/08/22 05:14:08;;;;;;;16.02;5.75;;;;;;;26.15;59.76;98935.31;5091729;28;20028;-45
2023/08/22 05:16:34;;;;;;;16.20;5.43;;;;;;;26.72;57.71;98930.44;5090495;28;20028;-45
2023/08/22 05:18:59;;;;;;;19.92;5.65;;;;;;;27.37;56.01;98932.03;5091708;28;20035;-46
2023/08/22 05:21:25;;;;;;;11.93;5.20;;;;;;;27.66;54.37;98931.59;5091727;28;20106;-46
2023/08/22 05:23:51;;;;;;;12.68;5.40;;;;;;;27.82;53.56;98928.53;5091739;28;20504;-46
2023/08/22 05:26:17;;;;;;;7.72;4.97;;;;;;;28.02;53.17;98930.72;5091734;28;20028;-45
2023/08/22 05:28:42;;;;;;;18.85;6.32;;;;;;;28.49;52.14;98928.38;5091939;28;20024;-46
2023/08/22 05:31:08;;;;;;;11.98;5.50;;;;;;;29.05;50.51;98922.47;5091541;28;20032;-46
2023/08/22 05:33:34;;;;;;;9.38;5.47;;;;;;;29.60;49.20;98919.16;5090343;28;20082;-46
2023/08/22 05:36:00;;;;;;;14.80;6.00;;;;;;;30.12;47.35;98926.34;5091532;28;20561;-46
2023/08/22 05:38:26;;;;;;;9.82;5.95;;;;;;;30.58;46.20;98915.81;5090326;28;20024;-46
2023/08/22 05:40:51;;;;;;;14.05;5.50;;;;;;;30.84;45.29;98926.47;5090282;28;20514;-46
2023/08/22 05:43:17;;;;;;;22.17;6.13;;;;;;;30.93;45.02;98927.25;5094199;28;20016;-46
2023/08/22 05:45:42;;;;;;;12.15;5.55;;;;;;;30.85;45.02;98928.88;5094129;28;20119;-46
2023/08/22 05:48:08;;;;;;;24.20;6.03;;;;;;;30.85;45.10;98926.16;5095445;28;20478;-46
2023/08/22 05:50:34;;;;;;;18.00;5.65;;;;;;;30.84;45.33;98931.91;5095284;28;20485;-46
2023/08/22 05:52:59;;;;;;;15.63;5.63;;;;;;;31.03;45.10;98934.19;5095357;28;20379;-46
2023/08/22 05:55:25;;;;;;;10.95;5.30;;;;;;;31.19;44.16;98937.91;5095267;28;20035;-46
2023/08/22 05:57:51;;;;;;;10.35;4.85;;;;;;;31.29;44.07;98944.03;5095178;28;20489;-46
2023/08/22 06:00:17;;;;;;;6.90;4.60;;;;;;;31.43;43.34;98944.53;5094849;28;20047;-46
2023/08/22 06:02:43;;;;;;;9.10;5.38;;;;;;;31.59;42.98;98939.31;5095363;28;20359;-46
2023/08/22 06:05:08;;;;;;;13.45;5.97;;;;;;;31.63;43.30;98941.06;5095094;28;20031;-46
2023/08/22 06:07:34;;;;;;;14.07;5.35;;;;;;;32.10;41.79;98934.50;5094981;28;20073;-46
2023/08/22 06:10:00;;;;;;;19.02;5.72;;;;;;;32.43;41.68;98937.09;5094891;28;20028;-46
2023/08/22 06:12:26;;;;;;;15.02;5.97;;;;;;;33.33;40.29;98939.81;5095234;28;20367;-46
2023/08/22 06:14:52;;;;;;;63.17;31.52;;;;;;;34.11;37.94;98928.63;5094858;28;20047;-46
2023/08/22 06:17:18;;;;;;;103.20;27.00;;;;;;;34.21;37.93;98937.13;5094718;28;20024;-46
2023/08/22 06:19:48;;;;;;;16.23;5.63;;;;;;;34.65;36.94;98935.38;5093500;28;20035;-46
2023/08/22 06:22:13;;;;;;;37.88;8.25;;;;;;;35.06;36.55;98935.91;5094975;28;20115;-46
2023/08/22 06:24:39;;;;;;;24.08;6.15;;;;;;;35.96;35.25;98933.78;5094702;28;20103;-46
2023/08/22 06:27:05;;;;;;;10.13;4.90;;;;;;;36.83;33.14;98929.66;5094624;28;20550;-46
2023/08/22 06:29:32;;;;;;;16.98;5.43;;;;;;;37.15;33.18;98928.13;5094530;28;20492;-46
2023/08/22 06:32:00;;;;;;;13.07;4.95;;;;;;;37.60;32.29;98930.22;5093448;28;20016;-46
2023/08/22 06:34:26;;;;;;;18.65;6.35;;;;;;;37.77;32.17;98937.78;5094507;28;20024;-46
2023/08/22 06:36:52;;;;;;;16.35;5.07;;;;;;;38.09;30.97;98938.13;5094442;28;20070;-46
2023/08/22 06:39:19;;;;;;;11.07;5.28;;;;;;;38.24;30.52;98938.25;5093085;28;20046;-46
2023/08/22 06:41:45;;;;;;;20.20;5.65;;;;;;;37.84;30.68;98946.09;5092952;28;20020;-46
2023/08/22 06:44:11;;;;;;;18.52;6.72;;;;;;;37.88;31.36;98944.16;5094300;28;20085;-46
2023/08/22 06:46:36;;;;;;;20.92;5.38;;;;;;;38.08;31.02;98946.72;5092968;28;20497;-46
2023/08/22 06:49:03;;;;;;;26.98;6.43;;;;;;;38.10;31.15;98955.34;5094161;28;20024;-46
2023/08/22 06:51:29;;;;;;;14.70;5.72;;;;;;;38.41;30.98;98959.50;5094069;28;20093;-46
2023/08/22 06:53:54;;;;;;;56.17;11.18;;;;;;;38.80;30.55;98959.00;5075614;28;20042;-46
2023/08/22 06:56:20;;;;;;;22.80;6.13;;;;;;;39.32;30.15;98961.59;5092748;28;20501;-46
2023/08/22 06:58:46;;;;;;;18.80;5.88;;;;;;;39.06;30.27;98963.47;5094021;28;20119;-46
2023/08/22 07:01:13;;;;;;;28.42;6.22;;;;;;;38.57;30.98;98959.25;5093754;28;20040;-46
2023/08/22 07:03:38;;;;;;;27.65;7.47;;;;;;;38.20;31.80;98962.09;5093845;28;20095;-46
2023/08/22 07:06:04;;;;;;;21.85;6.20;;;;;;;38.36;31.61;98960.66;5093844;28;20112;-46
2023/08/22 07:08:30;;;;;;;29.95;6.55;;;;;;;38.51;31.32;98963.50;5075712;28;20030;-46
2023/08/22 07:11:02;;;;;;;26.08;6.70;;;;;;;38.63;31.48;98962.41;5093742;28;20041;-46
2023/08/22 07:13:29;;;;;;;36.72;7.05;;;;;;;38.97;30.39;98976.75;5093788;28;20023;-46
2023/08/22 07:15:55;;;;;;;31.27;6.53;;;;;;;39.96;29.30;98974.72;5075541;28;20028;-46
2023/08/22 07:18:20;;;;;;;35.78;6.57;;;;;;;40.89;28.30;98974.69;5092359;28;20027;-46
2023/08/22 07:20:46;;;;;;;28.83;7.45;;;;;;;41.79;27.00;98968.00;5093595;28;20028;-46
2023/08/22 07:23:12;;;;;;;41.70;8.23;;;;;;;41.87;26.80;98970.28;5093488;28;20385;-46
2023/08/22 07:25:40;;;;;;;47.08;8.23;;;;;;;42.46;26.13;98974.19;5093483;28;20073;-47
2023/08/22 07:28:06;;;;;;;43.08;8.88;;;;;;;43.05;25.06;98968.44;5093523;28;20012;-47
2023/08/22 07:30:34;;;;;;;40.90;8.48;;;;;;;43.37;25.07;98975.56;5093336;28;20028;-47
2023/08/22 07:33:00;;;;;;;37.63;8.15;;;;;;;43.55;24.90;98972.56;5093407;28;20432;-47
2023/08/22 07:35:27;;;;;;;24.90;6.88;;;;;;;43.93;24.18;98971.59;5092029;28;20039;-47
2023/08/22 07:37:53;;;;;;;32.92;7.72;;;;;;;44.23;23.68;98977.06;5093249;28;20020;-47
2023/08/22 07:40:19;;;;;;;16.50;5.75;;;;;;;44.48;23.24;98975.88;5091902;28;20529;-47
2023/08/22 07:42:44;;;;;;;23.20;6.45;;;;;;;44.60;23.05;98971.69;5091841;28;20059;-47
2023/08/22 07:45:10;;;;;;;23.63;6.43;;;;;;;44.50;23.07;98973.47;5091900;28;20035;-47
2023/08/22 07:47:36;;;;;;;33.63;7.63;;;;;;;44.62;22.91;98964.53;5091774;28;20112;-47
2023/08/22 07:50:03;;;;;;;26.33;6.13;;;;;;;44.45;22.93;98962.81;5092987;28;20501;-47
2023/08/22 07:52:30;;;;;;;17.10;5.43;;;;;;;44.91;22.57;98961.22;5092991;28;20027;-47
2023/08/22 07:54:56;;;;;;;16.98;4.93;;;;;;;45.14;22.18;98959.53;5092950;28;20107;-47
2023/08/22 07:57:21;;;;;;;21.08;5.30;;;;;;;45.52;22.01;98964.69;5091604;28;20107;-47
2023/08/22 07:59:47;;;;;;;18.20;5.22;;;;;;;45.65;21.34;98960.81;5092580;28;20281;-47
2023/08/22 08:02:13;;;;;;;22.80;5.43;;;;;;;45.76;21.62;98959.78;5091559;28;20020;-47
2023/08/22 08:04:39;;;;;;;38.08;6.75;;;;;;;45.95;21.42;98958.16;5092096;28;20493;-47
2023/08/22 08:07:04;;;;;;;25.45;5.93;;;;;;;46.10;21.14;98956.59;5092775;28;20059;-46
2023/08/22 08:09:32;;;;;;;31.92;6.13;;;;;;;46.41;20.77;98959.78;5092649;28;20481;-46
2023/08/22 08:11:58;;;;;;;15.80;5.05;;;;;;;46.68;20.28;98955.09;5092627;28;20026;-47
2023/08/22 08:14:24;;;;;;;52.40;8.27;;;;;;;46.74;20.22;98958.88;5092659;28;20099;-47
2023/08/22 08:16:49;;;;;;;38.97;7.40;;;;;;;46.52;20.56;98951.16;5091218;28;20052;-47
2023/08/22 08:19:15;;;;;;;28.35;5.20;;;;;;;46.20;20.60;98960.31;5091264;28;20073;-46
2023/08/22 08:21:42;;;;;;;69.68;8.52;;;;;;;46.19;20.81;98950.44;5092317;28;20027;-47
2023/08/22 08:24:08;;;;;;;52.90;8.30;;;;;;;46.42;20.79;98952.22;5092452;28;20016;-47
2023/08/22 08:26:34;;;;;;;34.42;6.38;;;;;;;45.86;20.60;98955.97;5091006;28;20118;-47
2023/08/22 08:28:59;;;;;;;43.65;7.63;;;;;;;44.54;22.36;98956.78;5092583;28;20093;-47
2023/08/22 08:31:25;;;;;;;27.42;5.88;;;;;;;43.93;22.80;98968.84;5092261;28;20462;-48
2023/08/22 08:33:51;;;;;;;46.13;8.25;;;;;;;43.70;23.33;98964.06;5091231;28;20020;-49
2023/08/22 08:36:17;;;;;;;45.65;8.27;;;;;;;43.67;23.69;98963.72;5090926;28;20024;-49
2023/08/22 08:38:42;;;;;;;51.20;8.15;;;;;;;43.74;24.06;98959.28;5090894;28;20108;-49
2023/08/22 08:41:09;;;;;;;27.67;7.18;;;;;;;43.91;23.83;98971.25;5092159;28;20119;-49
2023/08/22 08:43:35;;;;;;;49.92;10.57;;;;;;;43.99;23.58;98967.16;5092169;28;20035;-49
2023/08/22 08:46:03;;;;;;;34.92;7.88;;;;;;;44.05;23.57;98971.00;5090756;28;20031;-49
2023/08/22 08:48:30;;;;;;;19.77;5.97;;;;;;;44.21;23.06;98973.16;5090738;28;20016;-49
2023/08/22 08:51:02;;;;;;;32.17;7.03;;;;;;;44.38;23.40;98960.22;5091947;28;20034;-49
2023/08/22 08:53:28;;;;;;;44.53;9.88;;;;;;;44.61;23.14;98954.63;5092029;28;20489;-49
2023/08/22 08:55:54;;;;;;;31.90;7.57;;;;;;;44.86;22.74;98954.19;5090766;28;20085;-49
2023/08/22 08:58:19;;;;;;;64.68;9.25;;;;;;;45.23;22.40;98954.97;5090633;28;20501;-49
2023/08/22 09:00:46;;;;;;;50.38;10.60;;;;;;;45.40;21.84;98950.31;5090328;28;20048;-49
2023/08/22 09:03:11;;;;;;;50.75;10.75;;;;;;;45.54;21.63;98940.06;5091823;28;20573;-49
2023/08/22 09:05:37;;;;;;;33.00;7.60;;;;;;;45.77;21.40;98942.72;5090459;28;20119;-49
2023/08/22 09:08:17;;;;;;;47.80;8.63;;;;;;;46.04;20.88;98936.13;5091928;28;20024;-49
2023/08/22 09:10:49;;;;;;;19.90;5.00;;;;;;;46.30;20.51;98936.25;5091750;28;20021;-49
2023/08/22 09:13:14;;;;;;;20.55;5.97;;;;;;;46.75;20.30;98938.25;5073804;28;20035;-49
2023/08/22 09:15:42;;;;;;;19.90;5.15;;;;;;;46.72;20.26;98933.56;5090441;28;20424;-49
2023/08/22 09:18:07;;;;;;;28.73;7.30;;;;;;;46.94;20.40;98940.06;5094696;28;20081;-49
2023/08/22 09:20:33;;;;;;;20.30;6.53;;;;;;;46.79;20.54;98931.38;5094617;28;20036;-49
2023/08/22 09:22:59;;;;;;;30.60;6.40;;;;;;;46.82;20.39;98932.50;5095952;28;20436;-49
2023/08/22 09:25:39;;;;;;;37.60;6.38;;;;;;;46.87;20.25;98928.38;5094464;28;20421;-49
2023/08/22 09:28:10;;;;;;;21.50;4.50;;;;;;;46.87;20.18;98926.41;5095798;28;20040;-49
2023/08/22 09:30:36;;;;;;;48.67;9.65;;;;;;;46.47;20.63;98921.16;5095729;28;20530;-50
2023/08/22 09:33:02;;;;;;;39.28;7.72;;;;;;;46.97;20.10;98924.50;5094419;28;20028;-49
2023/08/22 09:35:32;;;;;;;36.90;8.45;;;;;;;47.47;19.45;98914.66;5094353;28;20028;-49
2023/08/22 09:38:07;;;;;;;39.50;9.05;;;;;;;47.37;19.66;98911.00;5095603;28;20073;-49
2023/08/22 09:40:33;;;;;;;21.45;5.72;;;;;;;47.16;20.23;98917.19;5095524;28;20115;-49
2023/08/22 09:43:00;;;;;;;37.53;6.93;;;;;;;47.76;19.40;98919.31;5095547;28;20603;-49
2023/08/22 09:45:28;;;;;;;53.90;9.30;;;;;;;48.12;19.23;98913.34;5095428;28;20537;-49
2023/08/22 09:47:57;;;;;;;42.78;9.10;;;;;;;48.45;19.21;98909.44;5095466;28;20023;-50
2023/08/22 09:50:26;;;;;;;28.10;5.95;;;;;;;48.59;18.70;98904.09;5095312;28;20031;-49
2023/08/22 09:52:55;;;;;;;35.08;7.28;;;;;;;48.50;19.00;98912.44;5095368;28;20016;-49
2023/08/22 09:55:20;;;;;;;58.35;8.65;;;;;;;48.33;18.78;98909.03;5093985;28;20059;-50
2023/08/22 09:57:48;;;;;;;48.67;8.00;;;;;;;48.49;18.63;98901.72;5093926;28;20024;-49
2023/08/22 10:00:14;;;;;;;50.78;8.13;;;;;;;48.57;18.77;98892.66;5093605;28;20086;-49
2023/08/22 10:02:41;;;;;;;50.97;6.28;;;;;;;48.63;18.67;98894.84;5093865;28;20111;-49
2023/08/22 10:05:09;;;;;;;58.53;8.35;;;;;;;48.55;18.57;98889.53;5095003;28;20038;-49
2023/08/22 10:07:35;;;;;;;34.50;6.95;;;;;;;48.51;19.21;98888.91;5095058;28;20020;-50
2023/08/22 10:10:03;;;;;;;22.45;5.80;;;;;;;48.70;18.75;98889.03;5093647;28;20411;-49
2023/08/22 10:12:29;;;;;;;15.48;4.38;;;;;;;49.06;18.28;98888.47;5093695;28;20016;-49
2023/08/22 10:14:57;;;;;;;44.28;7.68;;;;;;;49.31;17.75;98876.31;5093678;28;20028;-49
2023/08/22 10:17:26;;;;;;;19.63;5.47;;;;;;;49.25;18.15;98878.16;5094993;28;20081;-49
2023/08/22 10:19:59;;;;;;;31.25;5.97;;;;;;;49.37;18.08;98879.31;5093578;28;20024;-50
2023/08/22 10:22:30;;;;;;;;;;;;;;;49.76;17.75;98868.53;5094048;28;20111;-49
2023/08/22 10:25:05;;;;;;;27.38;6.88;;;;;;;49.28;17.69;98882.78;5094752;28;19965;-49
2023/08/22 10:27:31;;;;;;;24.77;5.90;;;;;;;49.31;18.16;98873.53;5094250;28;20524;-50
2023/08/22 10:30:15;;;;;;;30.42;6.22;;;;;;;49.39;18.27;98868.47;5094384;28;20024;-49
2023/08/22 10:32:41;;;;;;;15.73;4.05;;;;;;;49.43;17.79;98877.47;5094548;28;20070;-50
2023/08/22 10:35:10;;;;;;;16.58;5.07;;;;;;;49.25;17.97;98867.00;5093332;28;20020;-50
2023/08/22 10:37:46;;;;;;;24.30;5.50;;;;;;;49.20;18.28;98864.81;5094484;28;20078;-49
2023/08/22 10:40:29;;;;;;;19.65;4.55;;;;;;;49.48;17.81;98862.13;5094726;28;20140;-49
2023/08/22 10:43:06;;;;;;;25.25;4.88;;;;;;;49.51;17.93;98855.63;5094385;28;20101;-50
2023/08/22 10:45:49;;;;;;;29.58;5.78;;;;;;;49.30;18.13;98857.25;5092966;28;20028;-49
2023/08/22 10:48:17;;;;;;;14.15;4.10;;;;;;;49.21;17.61;98855.22;5076225;28;20039;-50
2023/08/22 10:50:45;;;;;;;24.55;5.60;;;;;;;49.28;17.50;98846.56;5094489;28;20110;-49
2023/08/22 10:53:25;;;;;;;18.83;4.90;;;;;;;49.40;17.68;98847.69;5092907;28;20028;-50
2023/08/22 10:55:51;;;;;;;23.60;5.28;;;;;;;49.25;17.69;98844.69;5094144;28;20028;-50
2023/08/22 10:58:35;;;;;;;22.00;4.50;;;;;;;49.29;17.68;98834.16;5094637;28;20063;-50
2023/08/22 11:01:02;;;;;;;24.58;5.40;;;;;;;49.38;17.90;98825.06;5093875;28;20478;-50
2023/08/22 11:03:31;;;;;;;18.60;5.43;;;;;;;49.50;17.49;98823.38;5093994;28;20056;-49
2023/08/22 11:05:56;;;;;;;33.95;6.57;;;;;;;49.56;17.33;98815.94;5093900;28;20107;-50
2023/08/22 11:08:22;;;;;;;16.13;4.13;;;;;;;49.72;16.92;98815.66;5093935;28;20059;-49
2023/08/22 11:10:48;;;;;;;23.67;5.05;;;;;;;49.95;16.20;98816.31;5092460;28;20509;-49
2023/08/22 11:13:14;;;;;;;18.45;4.82;;;;;;;50.38;15.83;98810.81;5075662;28;20635;-49
2023/08/22 11:15:41;;;;;;;18.90;4.78;;;;;;;50.75;15.54;98811.47;5092431;28;20081;-49
2023/08/22 11:18:06;;;;;;;14.05;4.80;;;;;;;50.88;14.95;98816.91;5093687;28;20024;-49
2023/08/22 11:20:32;;;;;;;11.35;3.08;;;;;;;50.57;14.88;98809.53;5092306;28;20024;-49
2023/08/22 11:22:58;;;;;;;13.68;2.88;;;;;;;50.60;15.02;98808.59;5093683;28;20017;-50